Rechercher aéroport 
image banner adimage banner adimage banner ad
image banner ad

S51 - Andy Mc Beth

Situé à Klamath Glen, United States

ICAO - S51, IATA -

Données fournies par Airmate  

Information générale

Coordonnées: N41°30'43" W123°59'44"
Élévation : 42 feet MSL.
Variation magnétique : 18° East
Voir autres Aéroports à California

Données opérationnelles

Special qualification required
Heure actuelle UTC:
Heure actuelle locale:
Météo à : KCEC - Jack Mc Namara Field ( 36 km )
METAR: KCEC 291956Z AUTO 31006KT 8SM CLR 17/13 A2996 RMK AO2 SLP146 T01720128
TAF: KCEC 292002Z 2920/3018 21004KT P6SM SKC FM292100 17008KT 6SM HZ SCT008 FM300400 17003KT 3SM BR BKN003 FM300800 18003KT 1/2SM FG OVC002
Voir NOTAMs / SUP AIP / TFR affectant cet aéroport [VIEW]
Fréquences de communication: [VIEW]

Pistes:

Identifiant RWYQFULongueur (ft)Largeur (ft)SurfaceLDA (ft)
11240050ASPH
29240050ASPH

Coordonnées de l'aéroport

Adresse: Klamath Glen United States

Vue satellite de S51